Time;durP1;ratioP1;P1;durP2;ratioP2;P2;SDS_P1;SDS_P2;PMS_P1;PMS_P2;Temp;Humidity;BMP_temperature;BMP_pressure;BME280_temperature;BME280_humidity;BME280_pressure;Samples;Min_cycle;Max_cycle;Signal;HPM_P1;HPM_P2
2023/03/21 00:00:10;;;;;;;15.13;10.73;;;;;;;5.10;80.70;96388.88;5093032;28;20393;-61
2023/03/21 00:02:37;;;;;;;12.85;10.07;;;;;;;5.10;80.37;96389.72;5093051;28;20083;-60
2023/03/21 00:05:05;;;;;;;13.52;10.38;;;;;;;5.16;81.40;96394.81;5092953;28;20056;-61
2023/03/21 00:07:33;;;;;;;20.23;9.23;;;;;;;5.24;81.15;96386.84;5092853;28;20055;-59
2023/03/21 00:10:00;;;;;;;11.00;8.95;;;;;;;5.25;81.11;96390.31;5093138;28;20101;-61
2023/03/21 00:12:31;;;;;;;13.70;9.65;;;;;;;5.28;81.59;96380.75;5092808;28;20043;-61
2023/03/21 00:15:03;;;;;;;12.30;9.32;;;;;;;5.34;81.02;96382.38;5093086;28;20470;-60
2023/03/21 00:17:32;;;;;;;12.35;9.52;;;;;;;5.39;80.74;96377.94;5092907;28;20132;-60
2023/03/21 00:19:59;;;;;;;14.68;9.90;;;;;;;5.41;80.44;96372.72;5092835;28;20059;-60
2023/03/21 00:22:27;;;;;;;13.07;9.45;;;;;;;5.43;80.77;96371.81;5092805;28;20051;-60
2023/03/21 00:24:54;;;;;;;12.63;9.23;;;;;;;5.44;80.08;96360.53;5095429;28;20040;-60
2023/03/21 00:27:22;;;;;;;16.10;8.93;;;;;;;5.48;80.46;96365.66;5096487;28;20126;-60
2023/03/21 00:29:50;;;;;;;13.43;8.77;;;;;;;5.55;80.46;96359.47;5096563;28;20375;-60
2023/03/21 00:32:18;;;;;;;14.50;8.68;;;;;;;5.58;80.46;96356.81;5096538;28;20048;-60
2023/03/21 00:34:46;;;;;;;12.63;8.43;;;;;;;5.60;80.97;96359.38;5096523;28;20048;-60
2023/03/21 00:37:16;;;;;;;12.25;8.18;;;;;;;5.63;80.78;96354.13;5096368;28;20379;-60
2023/03/21 00:39:47;;;;;;;14.75;8.55;;;;;;;5.66;81.81;96344.50;5096396;28;20525;-61
2023/03/21 00:42:14;;;;;;;12.18;8.88;;;;;;;5.72;81.86;96342.69;5096262;28;20044;-60
2023/03/21 00:44:43;;;;;;;14.82;10.88;;;;;;;5.77;82.55;96341.69;5096295;28;20048;-60
2023/03/21 00:47:12;;;;;;;15.77;11.02;;;;;;;5.87;83.43;96333.69;5096154;28;20052;-61
2023/03/21 00:49:39;;;;;;;15.55;11.00;;;;;;;5.90;83.30;96334.47;5096062;28;20056;-61
2023/03/21 00:52:09;;;;;;;13.98;10.05;;;;;;;6.02;82.55;96330.75;5096272;28;20044;-61
2023/03/21 00:54:38;;;;;;;14.40;10.55;;;;;;;6.03;82.64;96329.88;5096241;28;20052;-61
2023/03/21 00:57:06;;;;;;;12.68;9.68;;;;;;;6.06;83.02;96321.19;5096088;28;20048;-62
2023/03/21 00:59:33;;;;;;;12.93;9.77;;;;;;;6.07;83.27;96325.47;5096132;28;20052;-61
2023/03/21 01:02:00;;;;;;;18.90;12.32;;;;;;;6.14;83.93;96319.25;5095961;28;20052;-61
2023/03/21 01:04:28;;;;;;;17.52;10.55;;;;;;;6.21;83.89;96316.50;5096186;28;20056;-61
2023/03/21 01:06:55;;;;;;;15.35;9.85;;;;;;;6.22;83.68;96303.47;5096105;28;20044;-60
2023/03/21 01:09:25;;;;;;;15.07;8.77;;;;;;;6.24;83.97;96304.31;5095805;28;20489;-61
2023/03/21 01:11:52;;;;;;;13.02;8.90;;;;;;;6.30;84.20;96313.69;5095880;28;20097;-60
2023/03/21 01:14:21;;;;;;;13.52;9.38;;;;;;;6.32;83.50;96297.16;5095670;28;20055;-61
2023/03/21 01:16:49;;;;;;;12.98;8.95;;;;;;;6.38;83.35;96301.34;5095675;28;20098;-61
2023/03/21 01:19:19;;;;;;;12.02;9.02;;;;;;;6.47;82.53;96300.25;5095664;28;20547;-61
2023/03/21 01:21:46;;;;;;;14.98;9.68;;;;;;;6.51;81.97;96301.06;5095636;28;20117;-61
2023/03/21 01:24:13;;;;;;;14.27;10.32;;;;;;;6.40;82.81;96285.72;5095847;28;20079;-61
2023/03/21 01:26:42;;;;;;;13.50;10.02;;;;;;;6.43;84.06;96275.25;5095650;28;20048;-61
2023/03/21 01:29:10;;;;;;;12.95;9.23;;;;;;;6.37;84.08;96273.66;5095403;28;20044;-61
2023/03/21 01:31:37;;;;;;;17.92;9.82;;;;;;;6.41;84.53;96274.47;5095473;28;20052;-60
2023/03/21 01:34:04;;;;;;;14.25;9.63;;;;;;;6.47;84.35;96276.03;5095189;28;20048;-61
2023/03/21 01:36:31;;;;;;;13.93;9.15;;;;;;;6.50;83.91;96275.97;5095059;28;20131;-61
2023/03/21 01:38:59;;;;;;;281.10;174.32;;;;;;;6.53;83.94;96281.09;5095263;28;20052;-61
2023/03/21 01:41:29;;;;;;;91.88;58.95;;;;;;;6.61;84.31;96281.72;5095261;28;20051;-60
2023/03/21 01:43:58;;;;;;;30.08;19.48;;;;;;;6.59;83.85;96272.25;5095344;28;20052;-61
2023/03/21 01:46:36;;;;;;;19.50;13.88;;;;;;;6.54;84.59;96275.81;5095090;28;20094;-61
2023/03/21 01:49:07;;;;;;;19.05;13.43;;;;;;;6.63;85.22;96281.69;5094992;28;20139;-61
2023/03/21 01:51:38;;;;;;;17.60;12.82;;;;;;;6.68;84.36;96279.78;5095157;28;20081;-60
2023/03/21 01:54:10;;;;;;;23.92;14.32;;;;;;;6.71;83.87;96274.53;5095026;28;20093;-60
2023/03/21 01:56:40;;;;;;;22.00;15.50;;;;;;;6.78;83.23;96275.22;5094866;28;20044;-60
2023/03/21 01:59:12;;;;;;;11.05;8.60;;;;;;;6.80;82.85;96271.69;5095253;28;20043;-61
2023/03/21 02:01:43;;;;;;;9.35;7.88;;;;;;;6.77;82.42;96268.31;5095069;28;20052;-61
2023/03/21 02:04:11;;;;;;;12.45;8.18;;;;;;;6.73;82.56;96264.94;5094840;28;20071;-60
2023/03/21 02:06:44;;;;;;;12.82;8.68;;;;;;;6.75;82.50;96257.97;5094763;28;20048;-61
2023/03/21 02:09:16;;;;;;;12.07;8.73;;;;;;;6.72;82.05;96258.06;5094630;28;20405;-61
2023/03/21 02:11:45;;;;;;;11.75;8.98;;;;;;;6.67;82.42;96252.09;5094685;28;20127;-60
2023/03/21 02:14:17;;;;;;;14.30;8.88;;;;;;;6.72;82.62;96249.38;5094563;28;20539;-60
2023/03/21 02:16:55;;;;;;;12.95;8.98;;;;;;;6.74;82.50;96242.41;5094631;28;20101;-61
2023/03/21 02:19:51;;;;;;;16.42;8.32;;;;;;;6.78;82.08;96244.03;5094502;28;20048;-60
2023/03/21 02:22:56;;;;;;;13.35;8.45;;;;;;;6.81;82.37;96249.13;5044345;28;20087;-61
2023/03/21 02:26:19;;;;;;;14.95;9.23;;;;;;;6.78;84.32;96247.50;5067383;28;20070;-60
2023/03/21 02:28:49;;;;;;;15.05;10.40;;;;;;;6.80;84.43;96247.41;5094294;28;20080;-60
2023/03/21 02:31:31;;;;;;;13.95;9.63;;;;;;;6.87;83.72;96248.13;5094341;28;20048;-61
2023/03/21 02:34:26;;;;;;;16.30;9.93;;;;;;;6.87;83.53;96251.56;5094320;28;20131;-61
2023/03/21 02:37:05;;;;;;;10.75;7.90;;;;;;;6.87;83.01;96248.13;5086060;28;20051;-61
2023/03/21 02:39:42;;;;;;;13.32;8.07;;;;;;;6.81;82.43;96247.38;5094066;28;20048;-61
2023/03/21 02:42:17;;;;;;;16.58;8.93;;;;;;;6.75;81.91;96250.16;5094183;28;20135;-60
2023/03/21 02:44:50;;;;;;;12.43;9.25;;;;;;;6.66;83.31;96253.88;5094038;28;20541;-61
2023/03/21 02:47:24;;;;;;;13.15;9.50;;;;;;;6.52;83.88;96242.97;5093284;28;20043;-60
2023/03/21 02:49:56;;;;;;;15.32;10.23;;;;;;;6.47;84.38;96252.66;5093694;28;20060;-61
2023/03/21 02:52:28;;;;;;;22.27;10.35;;;;;;;6.55;84.10;96253.28;5093907;28;20122;-62
2023/03/21 02:54:58;;;;;;;18.48;9.88;;;;;;;6.59;83.89;96246.28;5093829;28;20044;-61
2023/03/21 02:57:26;;;;;;;13.23;8.85;;;;;;;6.61;83.33;96240.13;5093806;28;20460;-61
2023/03/21 02:59:54;;;;;;;10.57;7.63;;;;;;;6.63;82.66;96237.50;5093755;28;20047;-60
2023/03/21 03:02:25;;;;;;;13.40;9.18;;;;;;;6.68;82.55;96252.06;5093769;28;20055;-60
2023/03/21 03:04:53;;;;;;;14.52;8.85;;;;;;;6.73;82.81;96244.16;5093746;28;20482;-60
2023/03/21 03:07:32;;;;;;;12.75;9.32;;;;;;;6.74;82.66;96248.44;5093643;28;20084;-61
2023/03/21 03:10:18;;;;;;;11.88;8.43;;;;;;;6.73;82.41;96257.16;5093698;28;20126;-61
2023/03/21 03:12:54;;;;;;;15.20;9.63;;;;;;;6.71;82.38;96251.13;5093514;28;20498;-60
2023/03/21 03:15:30;;;;;;;21.48;9.43;;;;;;;6.77;82.35;96245.75;5093520;28;20051;-61
2023/03/21 03:18:03;;;;;;;14.20;8.00;;;;;;;6.77;82.36;96247.53;5093327;28;20131;-61
2023/03/21 03:20:40;;;;;;;11.40;8.00;;;;;;;6.79;82.01;96245.72;5093384;28;20131;-60
2023/03/21 03:23:19;;;;;;;10.68;8.55;;;;;;;6.74;81.82;96238.03;5093760;28;20086;-61
2023/03/21 03:25:51;;;;;;;12.52;7.63;;;;;;;6.67;82.28;96244.31;5093292;28;20059;-61
2023/03/21 03:28:23;;;;;;;12.00;7.80;;;;;;;6.73;82.09;96243.28;5093275;28;20109;-60
2023/03/21 03:30:52;;;;;;;11.63;7.70;;;;;;;6.73;82.01;96243.28;5093221;28;20048;-61
2023/03/21 03:33:22;;;;;;;11.07;7.97;;;;;;;6.67;81.94;96234.78;5093281;28;20052;-61
2023/03/21 03:35:52;;;;;;;9.77;7.00;;;;;;;6.65;82.77;96222.72;5093223;28;20481;-60
2023/03/21 03:38:22;;;;;;;10.60;7.47;;;;;;;6.65;82.83;96228.75;5093412;28;20048;-60
2023/03/21 03:40:54;;;;;;;13.60;7.72;;;;;;;6.61;83.07;96223.69;5093200;28;20284;-60
2023/03/21 03:43:27;;;;;;;11.15;7.82;;;;;;;6.67;83.17;96220.91;5093025;28;20402;-61
2023/03/21 03:45:58;;;;;;;12.80;6.55;;;;;;;6.73;82.58;96223.34;5093138;28;20134;-60
2023/03/21 03:48:28;;;;;;;12.25;6.85;;;;;;;6.76;82.39;96225.00;5093138;28;20131;-61
2023/03/21 03:51:01;;;;;;;11.48;6.70;;;;;;;6.81;82.28;96231.78;5092875;28;20105;-61
2023/03/21 03:53:36;;;;;;;11.90;7.03;;;;;;;6.84;81.84;96220.47;5093262;28;20496;-61
2023/03/21 03:56:08;;;;;;;11.88;7.22;;;;;;;6.88;81.56;96234.22;5093033;28;20051;-60
2023/03/21 03:58:37;;;;;;;481.52;292.92;;;;;;;6.89;81.20;96228.97;5095410;28;20073;-60
2023/03/21 04:01:07;;;;;;;48.92;31.13;;;;;;;6.94;81.44;96236.63;5097412;28;20048;-61
2023/03/21 04:03:37;;;;;;;12.60;10.25;;;;;;;6.95;81.46;96233.13;5096981;28;20055;-60
2023/03/21 04:06:05;;;;;;;12.32;7.25;;;;;;;6.99;81.41;96236.50;5097082;28;20040;-61
2023/03/21 04:08:36;;;;;;;10.05;6.95;;;;;;;7.01;81.04;96224.34;5096872;28;20105;-60
2023/03/21 04:11:04;;;;;;;10.63;7.78;;;;;;;6.95;80.53;96218.41;5096893;28;20403;-61
2023/03/21 04:13:31;;;;;;;13.43;8.18;;;;;;;6.91;81.08;96214.19;5096983;28;20113;-60
2023/03/21 04:15:59;;;;;;;11.52;8.02;;;;;;;6.90;81.11;96216.81;5096938;28;20098;-60
2023/03/21 04:18:27;;;;;;;11.43;7.88;;;;;;;6.92;81.02;96220.22;5096867;28;20121;-61
2023/03/21 04:20:55;;;;;;;12.07;7.05;;;;;;;6.90;80.89;96215.09;5096778;28;20052;-60
2023/03/21 04:23:22;;;;;;;12.73;7.78;;;;;;;6.85;80.75;96221.28;5096766;28;20566;-60
2023/03/21 04:25:52;;;;;;;8.82;7.07;;;;;;;6.84;80.95;96220.47;5096815;28;20070;-60
2023/03/21 04:28:20;;;;;;;9.43;5.15;;;;;;;6.82;80.66;96227.44;5096572;28;20079;-61
2023/03/21 04:30:50;;;;;;;11.15;7.32;;;;;;;6.83;81.17;96230.00;5096636;28;20055;-61
2023/03/21 04:33:20;;;;;;;14.05;8.35;;;;;;;6.85;80.81;96229.97;5096483;28;20083;-60
2023/03/21 04:35:47;;;;;;;;;;;;;;;6.87;80.61;96229.91;5096912;28;20044;-61
2023/03/21 04:38:14;;;;;;;11.73;8.50;;;;;;;6.85;81.27;96229.97;5096500;28;20010;-61
2023/03/21 04:40:41;;;;;;;11.50;8.25;;;;;;;6.87;81.42;96222.97;5096336;28;20101;-61
2023/03/21 04:43:11;;;;;;;16.10;8.02;;;;;;;6.82;81.36;96217.91;5096453;28;20059;-61
2023/03/21 04:45:38;;;;;;;11.00;7.63;;;;;;;6.82;81.60;96223.09;5096302;28;20040;-61
2023/03/21 04:48:07;;;;;;;13.70;8.45;;;;;;;6.92;81.43;96223.69;5096178;28;20135;-61
2023/03/21 04:50:35;;;;;;;14.13;7.88;;;;;;;7.01;81.43;96227.75;5095938;28;20114;-61
2023/03/21 04:53:02;;;;;;;14.77;8.90;;;;;;;7.06;81.10;96223.28;5096159;28;20139;-61
2023/03/21 04:55:31;;;;;;;12.07;8.23;;;;;;;7.06;81.62;96222.44;5096275;28;20060;-61
2023/03/21 04:57:58;;;;;;;11.52;8.38;;;;;;;7.13;81.73;96217.91;5096085;28;20054;-62
2023/03/21 05:00:29;;;;;;;13.07;8.52;;;;;;;7.23;81.21;96227.16;5096043;28;20529;-61
2023/03/21 05:02:57;;;;;;;;;;;;;;;7.30;80.95;96233.00;5096496;28;20044;-60
2023/03/21 05:05:25;;;;;;;10.20;7.72;;;;;;;7.34;81.14;96242.44;5095942;28;20017;-61
2023/03/21 05:07:53;;;;;;;11.77;8.43;;;;;;;7.41;80.31;96251.75;5095978;28;20089;-61
2023/03/21 05:10:21;;;;;;;14.02;9.35;;;;;;;7.45;80.62;96253.38;5095217;28;20436;-61
2023/03/21 05:12:48;;;;;;;14.57;8.65;;;;;;;7.52;80.59;96266.19;5095795;28;20444;-61
2023/03/21 05:15:16;;;;;;;15.63;9.43;;;;;;;7.64;80.05;96273.63;5095828;28;20127;-61
2023/03/21 05:17:47;;;;;;;16.20;9.93;;;;;;;7.69;78.90;96276.09;5095811;28;20048;-61
2023/03/21 05:20:16;;;;;;;16.48;10.90;;;;;;;7.73;78.33;96277.72;5095851;28;20095;-61
2023/03/21 05:22:50;;;;;;;20.20;11.13;;;;;;;7.83;78.37;96286.94;5095533;28;20399;-61
2023/03/21 05:25:33;;;;;;;23.80;13.05;;;;;;;7.88;78.04;96291.16;5095803;28;20127;-61
2023/03/21 05:28:02;;;;;;;18.85;12.60;;;;;;;7.98;77.56;96297.81;5095562;28;20398;-61
2023/03/21 05:30:30;;;;;;;21.45;13.45;;;;;;;8.07;77.11;96304.47;5095418;28;20052;-62
2023/03/21 05:33:01;;;;;;;23.42;13.95;;;;;;;8.08;76.74;96314.84;5095543;28;20058;-62
2023/03/21 05:35:29;;;;;;;20.38;13.02;;;;;;;8.14;76.86;96315.53;5095343;28;20044;-62
2023/03/21 05:37:57;;;;;;;22.58;13.50;;;;;;;8.23;76.40;96317.84;5095269;28;20508;-60
2023/03/21 05:40:24;;;;;;;27.30;14.98;;;;;;;8.25;76.34;96317.81;5095247;28;20490;-61
2023/03/21 05:42:51;;;;;;;19.77;13.95;;;;;;;8.30;76.61;96310.66;5095204;28;20490;-61
2023/03/21 05:45:19;;;;;;;26.42;14.35;;;;;;;8.38;76.29;96311.28;5095152;28;20048;-61
2023/03/21 05:47:46;;;;;;;24.48;14.63;;;;;;;8.45;76.07;96302.34;5095166;28;20094;-61
2023/03/21 05:50:17;;;;;;;20.67;13.00;;;;;;;8.55;75.42;96300.31;5094734;28;20056;-61
2023/03/21 05:52:44;;;;;;;22.23;13.55;;;;;;;8.68;75.16;96307.72;5094920;28;20051;-62
2023/03/21 05:55:12;;;;;;;21.08;13.23;;;;;;;8.77;74.85;96307.41;5094938;28;20513;-61
2023/03/21 05:57:39;;;;;;;26.80;14.38;;;;;;;8.91;75.12;96304.31;5095126;28;20109;-61
2023/03/21 06:00:09;;;;;;;22.23;13.35;;;;;;;9.19;74.67;96298.13;5095113;28;20058;-61
2023/03/21 06:02:36;;;;;;;24.65;12.93;;;;;;;9.35;72.48;96305.38;5094833;28;20466;-62
2023/03/21 06:05:05;;;;;;;21.73;14.68;;;;;;;9.34;71.85;96306.31;5094885;28;20561;-61
2023/03/21 06:07:34;;;;;;;27.33;13.68;;;;;;;9.35;72.52;96301.03;5094782;28;20051;-61
2023/03/21 06:10:01;;;;;;;25.45;15.25;;;;;;;9.44;73.05;96306.81;5094648;28;20110;-61
2023/03/21 06:12:29;;;;;;;19.25;12.35;;;;;;;9.76;73.95;96303.88;5094635;28;20553;-61
2023/03/21 06:14:56;;;;;;;19.83;11.52;;;;;;;9.99;72.26;96297.75;5094608;28;20127;-62
2023/03/21 06:17:24;;;;;;;20.27;11.48;;;;;;;10.27;70.64;96287.97;5094549;28;20143;-61
2023/03/21 06:19:51;;;;;;;21.85;10.15;;;;;;;10.53;69.20;96288.69;5094554;28;20062;-61
2023/03/21 06:22:18;;;;;;;18.65;9.95;;;;;;;10.84;68.11;96282.16;5093405;28;20044;-60
2023/03/21 06:24:47;;;;;;;23.60;10.52;;;;;;;11.28;67.44;96275.00;5094379;28;20048;-61
2023/03/21 06:27:14;;;;;;;18.90;9.85;;;;;;;11.65;66.12;96273.31;5094391;28;20044;-61
2023/03/21 06:29:41;;;;;;;16.08;9.90;;;;;;;12.11;64.75;96285.19;5094504;28;20076;-61
2023/03/21 06:32:08;;;;;;;15.55;9.60;;;;;;;12.53;63.91;96282.31;5094342;28;20047;-62
2023/03/21 06:34:35;;;;;;;16.15;9.25;;;;;;;12.98;62.49;96285.31;5094414;28;20452;-61
2023/03/21 06:37:04;;;;;;;15.02;9.48;;;;;;;13.33;61.06;96287.84;5094433;28;20047;-61
2023/03/21 06:39:32;;;;;;;16.63;9.95;;;;;;;13.33;59.11;96300.16;5094109;28;20055;-61
2023/03/21 06:42:01;;;;;;;23.45;13.20;;;;;;;13.38;59.50;96293.72;5094095;28;20521;-61
2023/03/21 06:44:29;;;;;;;18.90;10.93;;;;;;;13.68;59.40;96296.56;5094084;28;20215;-62
2023/03/21 06:46:56;;;;;;;18.45;12.13;;;;;;;14.12;57.77;96302.94;5094009;28;20046;-61
2023/03/21 06:49:24;;;;;;;20.15;11.02;;;;;;;14.21;58.05;96304.22;5093966;28;20135;-61
2023/03/21 06:51:51;;;;;;;20.30;11.65;;;;;;;14.46;56.94;96301.03;5093733;28;20040;-61
2023/03/21 06:54:19;;;;;;;14.57;10.05;;;;;;;15.18;55.64;96302.16;5093888;28;20497;-61
2023/03/21 06:56:47;;;;;;;15.48;8.68;;;;;;;15.80;52.26;96302.78;5093906;28;20500;-61
2023/03/21 06:59:15;;;;;;;15.55;8.88;;;;;;;15.91;50.95;96302.09;5093891;28;20044;-61
2023/03/21 07:01:43;;;;;;;13.73;8.63;;;;;;;16.04;50.96;96300.41;5093897;28;20149;-60
2023/03/21 07:04:10;;;;;;;11.88;8.38;;;;;;;16.34;50.50;96298.50;5093813;28;20390;-61
2023/03/21 07:06:37;;;;;;;14.20;8.18;;;;;;;16.58;49.72;96302.31;5093899;28;20040;-61
2023/03/21 07:09:05;;;;;;;11.82;7.60;;;;;;;16.72;49.14;96310.16;5093633;28;20059;-61
2023/03/21 07:11:33;;;;;;;14.63;8.93;;;;;;;16.89;48.88;96310.81;5093654;28;20528;-61
2023/03/21 07:14:01;;;;;;;17.38;8.95;;;;;;;16.98;49.34;96314.63;5093476;28;20040;-61
2023/03/21 07:16:29;;;;;;;15.30;9.00;;;;;;;16.87;48.92;96315.34;5093532;28;20051;-61
2023/03/21 07:18:57;;;;;;;12.07;8.60;;;;;;;17.05;48.84;96308.81;5093748;28;20047;-60
2023/03/21 07:21:24;;;;;;;11.25;7.93;;;;;;;17.40;48.59;96315.28;5093337;28;20052;-61
2023/03/21 07:23:51;;;;;;;11.77;7.95;;;;;;;17.80;46.88;96319.59;5093390;28;20052;-61
2023/03/21 07:26:18;;;;;;;13.52;7.60;;;;;;;17.97;46.19;96301.66;5093361;28;20048;-60
2023/03/21 07:28:45;;;;;;;12.90;7.28;;;;;;;17.74;45.07;96305.94;5093434;28;20382;-61
2023/03/21 07:31:15;;;;;;;13.02;7.57;;;;;;;17.51;45.73;96300.47;5093553;28;20052;-60
2023/03/21 07:33:45;;;;;;;11.10;8.80;;;;;;;17.41;45.93;96302.94;5093187;28;20180;-61
2023/03/21 07:36:14;;;;;;;14.80;7.32;;;;;;;17.42;46.29;96299.31;5093210;28;20064;-61
2023/03/21 07:38:42;;;;;;;10.63;6.85;;;;;;;17.49;46.94;96295.28;5093187;28;20500;-61
2023/03/21 07:41:09;;;;;;;15.15;7.55;;;;;;;17.65;45.60;96288.94;5093154;28;20051;-60
2023/03/21 07:43:37;;;;;;;14.50;6.68;;;;;;;17.82;45.87;96290.38;5093133;28;20070;-61
2023/03/21 07:46:05;;;;;;;11.90;7.32;;;;;;;17.65;47.10;96294.22;5093045;28;20044;-61
2023/03/21 07:48:33;;;;;;;18.98;8.15;;;;;;;17.68;46.26;96300.16;5093125;28;20075;-60
2023/03/21 07:51:02;;;;;;;10.27;7.50;;;;;;;17.56;47.04;96293.09;5092898;28;20101;-60
2023/03/21 07:53:29;;;;;;;13.27;7.13;;;;;;;17.77;46.53;96293.38;5093053;28;20499;-62
2023/03/21 07:55:57;;;;;;;13.88;6.80;;;;;;;18.10;45.46;96285.78;5093023;28;20059;-61
2023/03/21 07:58:24;;;;;;;12.00;7.85;;;;;;;18.25;45.13;96289.13;5092990;28;20047;-61
2023/03/21 08:00:51;;;;;;;12.45;7.68;;;;;;;18.10;44.25;96287.53;5092896;28;20135;-61
2023/03/21 08:03:22;;;;;;;12.10;7.95;;;;;;;17.84;45.17;96284.97;5093025;28;20052;-60
2023/03/21 08:05:49;;;;;;;;;;;;;;;17.47;47.14;96291.94;5093386;28;20044;-61
2023/03/21 08:08:18;;;;;;;10.60;7.63;;;;;;;17.32;46.47;96285.06;5093025;28;20361;-60
2023/03/21 08:10:45;;;;;;;14.25;7.63;;;;;;;17.16;47.33;96281.69;5092911;28;20138;-60
2023/03/21 08:13:13;;;;;;;11.98;6.28;;;;;;;17.29;47.98;96280.84;5093190;28;20059;-61
2023/03/21 08:15:40;;;;;;;12.25;6.43;;;;;;;17.53;46.19;96283.56;5092824;28;20490;-60
2023/03/21 08:18:09;;;;;;;8.23;6.40;;;;;;;17.81;45.67;96278.09;5092794;28;20165;-60
2023/03/21 08:20:36;;;;;;;11.73;6.10;;;;;;;18.10;45.15;96276.97;5092729;28;20143;-61
2023/03/21 08:23:03;;;;;;;12.20;5.97;;;;;;;18.38;43.80;96272.31;5092718;28;20044;-61
2023/03/21 08:25:32;;;;;;;9.23;6.00;;;;;;;18.64;43.81;96266.88;5092788;28;20071;-61
2023/03/21 08:27:59;;;;;;;8.98;5.88;;;;;;;18.64;43.04;96273.03;5092778;28;20493;-60
2023/03/21 08:30:28;;;;;;;13.15;7.60;;;;;;;18.31;44.99;96264.81;5092740;28;20489;-60
2023/03/21 08:32:57;;;;;;;15.35;7.00;;;;;;;18.22;44.71;96264.66;5092791;28;20075;-60
2023/03/21 08:35:25;;;;;;;13.82;6.13;;;;;;;18.26;45.10;96266.97;5092693;28;20083;-60
2023/03/21 08:37:52;;;;;;;17.52;7.07;;;;;;;18.27;44.31;96260.72;5093092;28;20073;-60
2023/03/21 08:40:19;;;;;;;14.82;7.50;;;;;;;18.22;45.32;96262.00;5092672;28;20056;-61
2023/03/21 08:42:48;;;;;;;15.93;7.22;;;;;;;17.84;45.33;96261.16;5092912;28;20048;-60
2023/03/21 08:45:17;;;;;;;18.25;8.15;;;;;;;17.60;46.26;96267.25;5094329;28;20044;-60
2023/03/21 08:47:44;;;;;;;20.48;9.27;;;;;;;17.20;47.43;96271.75;5096418;28;20135;-60
2023/03/21 08:50:15;;;;;;;25.08;10.40;;;;;;;17.49;47.71;96266.22;5096041;28;20073;-61
2023/03/21 08:52:43;;;;;;;19.83;10.55;;;;;;;17.91;47.91;96262.44;5096324;28;20044;-61
2023/03/21 08:55:11;;;;;;;17.63;9.68;;;;;;;18.15;46.23;96264.28;5096356;28;20044;-61
2023/03/21 08:57:38;;;;;;;18.48;8.20;;;;;;;18.44;44.35;96254.19;5096197;28;20432;-61
2023/03/21 09:00:11;;;;;;;22.55;9.15;;;;;;;18.72;44.35;96261.00;5096279;28;20078;-60
2023/03/21 09:02:38;;;;;;;26.50;11.60;;;;;;;18.74;44.24;96261.72;5096129;28;20044;-61
2023/03/21 09:05:06;;;;;;;27.38;12.45;;;;;;;18.27;45.07;96268.66;5096053;28;20069;-61
2023/03/21 09:07:35;;;;;;;23.80;11.43;;;;;;;18.02;46.25;96261.63;5096123;28;20048;-61
2023/03/21 09:10:02;;;;;;;23.23;12.27;;;;;;;17.94;45.90;96252.47;5096077;28;20047;-61
2023/03/21 09:12:29;;;;;;;25.70;12.63;;;;;;;17.90;45.89;96258.94;5095914;28;20058;-61
2023/03/21 09:14:56;;;;;;;30.85;13.23;;;;;;;17.85;46.37;96252.28;5095832;28;20509;-60
2023/03/21 09:17:25;;;;;;;30.33;13.13;;;;;;;17.84;46.00;96251.44;5095880;28;20595;-61
2023/03/21 09:19:52;;;;;;;28.20;12.60;;;;;;;17.87;46.46;96245.94;5095753;28;20044;-61
2023/03/21 09:22:22;;;;;;;28.58;14.13;;;;;;;17.98;46.53;96247.81;5095596;28;20113;-61
2023/03/21 09:24:50;;;;;;;26.08;13.32;;;;;;;17.84;47.12;96240.84;5095685;28;20051;-61
2023/03/21 09:27:21;;;;;;;28.77;14.15;;;;;;;17.74;47.62;96231.91;5095571;28;20481;-61
2023/03/21 09:29:49;;;;;;;29.67;13.55;;;;;;;17.76;47.32;96238.75;5095450;28;20048;-61
2023/03/21 09:32:17;;;;;;;29.23;13.57;;;;;;;17.73;47.14;96233.69;5095532;28;20080;-61
2023/03/21 09:34:47;;;;;;;30.13;13.25;;;;;;;17.76;46.92;96230.00;5095992;28;20085;-60
2023/03/21 09:37:14;;;;;;;24.30;13.57;;;;;;;17.64;47.39;96237.84;5095403;28;20055;-61
2023/03/21 09:39:44;;;;;;;25.40;13.75;;;;;;;17.36;48.29;96244.22;5095291;28;20055;-61
2023/03/21 09:42:22;;;;;;;26.85;13.75;;;;;;;17.12;48.77;96243.22;5095267;28;20078;-61
2023/03/21 09:45:04;;;;;;;28.15;13.57;;;;;;;17.02;48.68;96242.13;5095619;28;20048;-61
2023/03/21 09:47:44;;;;;;;30.25;13.13;;;;;;;16.95;48.93;96244.34;5095219;28;20121;-60
2023/03/21 09:50:19;;;;;;;31.17;13.13;;;;;;;16.87;49.97;96241.38;5095054;28;20113;-60
2023/03/21 09:52:50;;;;;;;29.40;13.25;;;;;;;17.01;49.22;96233.34;5095195;28;20044;-60
2023/03/21 09:55:20;;;;;;;25.48;12.23;;;;;;;17.29;48.09;96233.25;5094836;28;20127;-60
2023/03/21 09:57:51;;;;;;;19.17;12.10;;;;;;;17.66;48.04;96235.94;5095242;28;20450;-60
2023/03/21 10:00:26;;;;;;;31.48;12.25;;;;;;;18.00;47.38;96230.00;5095019;28;20055;-61
2023/03/21 10:02:58;;;;;;;23.40;12.05;;;;;;;18.13;47.22;96229.13;5094877;28;20056;-60
2023/03/21 10:05:30;;;;;;;25.02;11.48;;;;;;;18.42;46.57;96231.41;5095200;28;20044;-60
2023/03/21 10:08:03;;;;;;;23.05;11.63;;;;;;;18.61;47.07;96225.59;5094873;28;20055;-60
2023/03/21 10:10:35;;;;;;;18.70;9.60;;;;;;;18.82;45.01;96228.38;5094678;28;20131;-61
2023/03/21 10:13:05;;;;;;;19.05;11.10;;;;;;;18.87;45.28;96227.22;5094762;28;20048;-60
2023/03/21 10:15:32;;;;;;;21.70;11.50;;;;;;;18.80;45.39;96227.69;5094751;28;20130;-60
2023/03/21 10:18:02;;;;;;;32.25;10.07;;;;;;;18.78;43.59;96229.59;5094650;28;20102;-60
2023/03/21 10:20:33;;;;;;;23.38;11.15;;;;;;;18.66;44.87;96219.94;5094755;28;20056;-60
2023/03/21 10:23:03;;;;;;;25.60;11.13;;;;;;;18.58;45.44;96227.59;5094583;28;20489;-60
2023/03/21 10:25:33;;;;;;;26.33;11.55;;;;;;;18.59;45.15;96229.28;5094443;28;20490;-61
2023/03/21 10:28:01;;;;;;;22.57;10.83;;;;;;;18.50;45.11;96231.69;5094500;28;20501;-61
2023/03/21 10:30:39;;;;;;;16.40;9.80;;;;;;;18.34;45.32;96232.00;5094325;28;20048;-60
2023/03/21 10:33:11;;;;;;;20.52;10.35;;;;;;;18.10;45.36;96231.97;5094583;28;20056;-60
2023/03/21 10:35:43;;;;;;;24.02;9.98;;;;;;;17.78;46.44;96231.56;5094345;28;20048;-61
2023/03/21 10:38:16;;;;;;;23.17;10.95;;;;;;;17.65;46.39;96236.03;5094204;28;20075;-60
2023/03/21 10:40:44;;;;;;;25.33;10.02;;;;;;;17.48;46.80;96231.94;5094209;28;20494;-61
2023/03/21 10:43:34;;;;;;;23.08;9.82;;;;;;;17.28;47.47;96231.59;5094124;28;20604;-60
2023/03/21 10:46:08;;;;;;;23.17;10.47;;;;;;;16.93;48.62;96227.75;5056532;28;20048;-60
2023/03/21 10:48:40;;;;;;;18.50;10.52;;;;;;;16.88;48.76;96214.00;5094159;28;20296;-61
2023/03/21 10:51:10;;;;;;;23.83;10.63;;;;;;;16.87;48.91;96204.41;5093879;28;20106;-60
2023/03/21 10:53:40;;;;;;;20.85;11.23;;;;;;;16.92;49.08;96204.94;5093893;28;20101;-61
2023/03/21 10:56:10;;;;;;;21.23;10.70;;;;;;;16.99;48.78;96203.56;5093888;28;20048;-61
2023/03/21 10:58:41;;;;;;;21.02;12.00;;;;;;;16.84;49.40;96194.91;5093797;28;20044;-60
2023/03/21 11:01:14;;;;;;;17.15;10.95;;;;;;;16.91;49.55;96188.25;5093814;28;20044;-61
2023/03/21 11:03:45;;;;;;;23.85;12.13;;;;;;;17.09;49.36;96187.06;5093930;28;20123;-61
2023/03/21 11:06:18;;;;;;;22.00;11.13;;;;;;;17.18;49.16;96181.16;5093755;28;20056;-61
2023/03/21 11:08:48;;;;;;;19.58;10.75;;;;;;;17.15;49.26;96184.00;5093139;28;20052;-62
2023/03/21 11:11:24;;;;;;;;;;;;;;;17.09;49.18;96177.38;5094081;28;20052;-61
2023/03/21 11:13:58;;;;;;;15.52;9.30;;;;;;;16.94;49.36;96181.88;5093704;28;20312;-60
2023/03/21 11:16:30;;;;;;;15.95;9.05;;;;;;;16.81;48.18;96181.91;5093581;28;20440;-61
2023/03/21 11:19:01;;;;;;;17.85;9.68;;;;;;;16.73;49.14;96176.28;5093646;28;20048;-61
2023/03/21 11:21:36;;;;;;;14.63;9.00;;;;;;;16.60;48.31;96185.06;5093560;28;20367;-61
2023/03/21 11:24:05;;;;;;;16.52;9.00;;;;;;;16.14;49.06;96183.75;5093431;28;20040;-60
2023/03/21 11:26:37;;;;;;;23.30;9.27;;;;;;;15.71;49.90;96168.91;5093390;28;20512;-60
2023/03/21 11:29:17;;;;;;;18.30;9.60;;;;;;;15.58;51.18;96164.41;5093435;28;20044;-61
2023/03/21 11:31:45;;;;;;;17.23;9.48;;;;;;;15.69;51.55;96170.78;5093473;28;20051;-60
2023/03/21 11:34:25;;;;;;;18.35;8.43;;;;;;;15.78;49.31;96159.66;5093315;28;20048;-61
2023/03/21 11:37:01;;;;;;;17.30;8.52;;;;;;;15.84;49.86;96167.16;5093464;28;20044;-60
2023/03/21 11:39:33;;;;;;;14.57;7.68;;;;;;;16.06;48.35;96165.78;5093280;28;20048;-60